sensor_id;sensor_type;location;lat;lon;timestamp;P1;durP1;ratioP1;P2;durP2;ratioP2
5279;SDS011;2663;53.588;10.010;2024-02-28T00:02:01;35.43;;;23.90;;
5279;SDS011;2663;53.588;10.010;2024-02-28T00:04:28;41.50;;;26.63;;
5279;SDS011;2663;53.588;10.010;2024-02-28T00:06:55;45.13;;;26.83;;
5279;SDS011;2663;53.588;10.010;2024-02-28T00:09:21;40.40;;;25.97;;
5279;SDS011;2663;53.588;10.010;2024-02-28T00:11:48;43.13;;;26.20;;
5279;SDS011;2663;53.588;10.010;2024-02-28T00:14:15;38.23;;;25.10;;
5279;SDS011;2663;53.588;10.010;2024-02-28T00:16:43;40.07;;;20.87;;
5279;SDS011;2663;53.588;10.010;2024-02-28T00:19:11;40.70;;;25.43;;
5279;SDS011;2663;53.588;10.010;2024-02-28T00:21:38;41.57;;;25.57;;
5279;SDS011;2663;53.588;10.010;2024-02-28T00:24:06;49.50;;;27.47;;
5279;SDS011;2663;53.588;10.010;2024-02-28T00:26:33;51.77;;;30.10;;
5279;SDS011;2663;53.588;10.010;2024-02-28T00:29:00;49.63;;;28.10;;
5279;SDS011;2663;53.588;10.010;2024-02-28T00:31:27;42.07;;;25.73;;
5279;SDS011;2663;53.588;10.010;2024-02-28T00:33:55;47.80;;;27.97;;
5279;SDS011;2663;53.588;10.010;2024-02-28T00:36:21;48.67;;;28.73;;
5279;SDS011;2663;53.588;10.010;2024-02-28T00:38:48;43.30;;;26.37;;
5279;SDS011;2663;53.588;10.010;2024-02-28T00:41:15;44.60;;;25.70;;
5279;SDS011;2663;53.588;10.010;2024-02-28T00:43:42;42.00;;;26.27;;
5279;SDS011;2663;53.588;10.010;2024-02-28T00:46:08;49.40;;;27.70;;
5279;SDS011;2663;53.588;10.010;2024-02-28T00:48:38;44.10;;;25.97;;
5279;SDS011;2663;53.588;10.010;2024-02-28T00:51:06;51.73;;;27.87;;
5279;SDS011;2663;53.588;10.010;2024-02-28T00:53:34;48.43;;;28.20;;
5279;SDS011;2663;53.588;10.010;2024-02-28T00:56:01;51.87;;;28.73;;
5279;SDS011;2663;53.588;10.010;2024-02-28T00:58:28;45.00;;;27.13;;
5279;SDS011;2663;53.588;10.010;2024-02-28T01:00:56;43.40;;;26.17;;
5279;SDS011;2663;53.588;10.010;2024-02-28T01:03:23;46.30;;;27.97;;
5279;SDS011;2663;53.588;10.010;2024-02-28T01:05:50;46.47;;;27.60;;
5279;SDS011;2663;53.588;10.010;2024-02-28T01:08:17;50.03;;;25.23;;
5279;SDS011;2663;53.588;10.010;2024-02-28T01:10:44;50.67;;;29.27;;
5279;SDS011;2663;53.588;10.010;2024-02-28T01:13:12;46.70;;;28.97;;
5279;SDS011;2663;53.588;10.010;2024-02-28T01:15:41;43.37;;;25.60;;
5279;SDS011;2663;53.588;10.010;2024-02-28T01:18:09;47.50;;;27.47;;
5279;SDS011;2663;53.588;10.010;2024-02-28T01:20:36;52.93;;;28.23;;
5279;SDS011;2663;53.588;10.010;2024-02-28T01:23:03;49.23;;;27.80;;
5279;SDS011;2663;53.588;10.010;2024-02-28T01:25:30;42.23;;;25.97;;
5279;SDS011;2663;53.588;10.010;2024-02-28T01:27:57;50.47;;;27.17;;
5279;SDS011;2663;53.588;10.010;2024-02-28T01:30:26;54.17;;;29.20;;
5279;SDS011;2663;53.588;10.010;2024-02-28T01:32:53;51.10;;;28.47;;
5279;SDS011;2663;53.588;10.010;2024-02-28T01:35:20;49.77;;;27.80;;
5279;SDS011;2663;53.588;10.010;2024-02-28T01:37:47;60.40;;;30.10;;
5279;SDS011;2663;53.588;10.010;2024-02-28T01:40:14;47.20;;;27.23;;
5279;SDS011;2663;53.588;10.010;2024-02-28T01:42:40;47.77;;;25.87;;
5279;SDS011;2663;53.588;10.010;2024-02-28T01:45:09;46.83;;;26.37;;
5279;SDS011;2663;53.588;10.010;2024-02-28T01:47:41;55.03;;;28.07;;
5279;SDS011;2663;53.588;10.010;2024-02-28T01:50:11;54.90;;;29.33;;
5279;SDS011;2663;53.588;10.010;2024-02-28T01:52:38;49.17;;;26.10;;
5279;SDS011;2663;53.588;10.010;2024-02-28T01:55:06;47.40;;;25.70;;
5279;SDS011;2663;53.588;10.010;2024-02-28T01:57:33;53.30;;;28.50;;
5279;SDS011;2663;53.588;10.010;2024-02-28T02:00:04;49.80;;;27.20;;
5279;SDS011;2663;53.588;10.010;2024-02-28T02:02:34;49.50;;;28.77;;
5279;SDS011;2663;53.588;10.010;2024-02-28T02:05:01;46.97;;;28.53;;
5279;SDS011;2663;53.588;10.010;2024-02-28T02:07:28;51.40;;;26.17;;
5279;SDS011;2663;53.588;10.010;2024-02-28T02:09:55;49.83;;;27.70;;
5279;SDS011;2663;53.588;10.010;2024-02-28T02:12:22;47.60;;;27.67;;
5279;SDS011;2663;53.588;10.010;2024-02-28T02:14:49;44.53;;;25.60;;
5279;SDS011;2663;53.588;10.010;2024-02-28T02:17:16;44.10;;;24.20;;
5279;SDS011;2663;53.588;10.010;2024-02-28T02:19:42;45.00;;;22.53;;
5279;SDS011;2663;53.588;10.010;2024-02-28T02:22:10;46.60;;;25.10;;
5279;SDS011;2663;53.588;10.010;2024-02-28T02:24:39;42.17;;;23.70;;
5279;SDS011;2663;53.588;10.010;2024-02-28T02:27:06;44.20;;;22.40;;
5279;SDS011;2663;53.588;10.010;2024-02-28T02:29:33;41.40;;;23.17;;
5279;SDS011;2663;53.588;10.010;2024-02-28T02:32:00;41.10;;;21.77;;
5279;SDS011;2663;53.588;10.010;2024-02-28T02:34:27;40.57;;;22.27;;
5279;SDS011;2663;53.588;10.010;2024-02-28T02:36:54;36.37;;;21.03;;
5279;SDS011;2663;53.588;10.010;2024-02-28T02:39:22;40.50;;;21.87;;
5279;SDS011;2663;53.588;10.010;2024-02-28T02:41:48;47.40;;;22.37;;
5279;SDS011;2663;53.588;10.010;2024-02-28T02:44:15;48.30;;;21.73;;
5279;SDS011;2663;53.588;10.010;2024-02-28T02:46:42;39.90;;;21.60;;
5279;SDS011;2663;53.588;10.010;2024-02-28T02:49:09;40.13;;;21.00;;
5279;SDS011;2663;53.588;10.010;2024-02-28T02:51:36;38.73;;;19.27;;
5279;SDS011;2663;53.588;10.010;2024-02-28T02:54:03;42.43;;;20.43;;
5279;SDS011;2663;53.588;10.010;2024-02-28T02:56:30;42.00;;;21.80;;
5279;SDS011;2663;53.588;10.010;2024-02-28T02:58:56;36.83;;;18.40;;
5279;SDS011;2663;53.588;10.010;2024-02-28T03:01:23;35.80;;;18.67;;
5279;SDS011;2663;53.588;10.010;2024-02-28T03:03:50;40.27;;;18.40;;
5279;SDS011;2663;53.588;10.010;2024-02-28T03:06:17;32.13;;;18.27;;
5279;SDS011;2663;53.588;10.010;2024-02-28T03:08:44;37.73;;;19.77;;
5279;SDS011;2663;53.588;10.010;2024-02-28T03:11:11;36.23;;;18.97;;
5279;SDS011;2663;53.588;10.010;2024-02-28T03:13:38;38.67;;;19.20;;
5279;SDS011;2663;53.588;10.010;2024-02-28T03:16:04;35.40;;;19.83;;
5279;SDS011;2663;53.588;10.010;2024-02-28T03:18:32;38.10;;;19.80;;
5279;SDS011;2663;53.588;10.010;2024-02-28T03:20:58;36.83;;;19.13;;
5279;SDS011;2663;53.588;10.010;2024-02-28T03:23:25;36.30;;;17.90;;
5279;SDS011;2663;53.588;10.010;2024-02-28T03:25:52;33.57;;;18.30;;
5279;SDS011;2663;53.588;10.010;2024-02-28T03:28:19;35.87;;;18.63;;
5279;SDS011;2663;53.588;10.010;2024-02-28T03:30:45;35.83;;;17.83;;
5279;SDS011;2663;53.588;10.010;2024-02-28T03:33:12;35.43;;;17.47;;
5279;SDS011;2663;53.588;10.010;2024-02-28T03:35:39;39.73;;;19.53;;
5279;SDS011;2663;53.588;10.010;2024-02-28T03:38:06;35.00;;;18.50;;
5279;SDS011;2663;53.588;10.010;2024-02-28T03:40:32;30.90;;;16.80;;
5279;SDS011;2663;53.588;10.010;2024-02-28T03:42:59;31.63;;;16.97;;
5279;SDS011;2663;53.588;10.010;2024-02-28T03:45:29;32.30;;;16.93;;
5279;SDS011;2663;53.588;10.010;2024-02-28T03:47:56;32.30;;;16.37;;
5279;SDS011;2663;53.588;10.010;2024-02-28T03:50:23;34.77;;;17.73;;
5279;SDS011;2663;53.588;10.010;2024-02-28T03:52:50;35.97;;;18.57;;
5279;SDS011;2663;53.588;10.010;2024-02-28T03:55:17;35.07;;;18.27;;
5279;SDS011;2663;53.588;10.010;2024-02-28T03:57:46;32.73;;;17.87;;
5279;SDS011;2663;53.588;10.010;2024-02-28T04:00:14;37.50;;;20.10;;
5279;SDS011;2663;53.588;10.010;2024-02-28T04:02:41;36.00;;;18.73;;
5279;SDS011;2663;53.588;10.010;2024-02-28T04:05:07;34.67;;;18.80;;
5279;SDS011;2663;53.588;10.010;2024-02-28T04:07:34;38.73;;;20.13;;
5279;SDS011;2663;53.588;10.010;2024-02-28T04:10:01;36.93;;;18.33;;
5279;SDS011;2663;53.588;10.010;2024-02-28T04:12:30;32.90;;;17.60;;
5279;SDS011;2663;53.588;10.010;2024-02-28T04:14:57;39.03;;;19.03;;
5279;SDS011;2663;53.588;10.010;2024-02-28T04:17:24;38.77;;;19.93;;
5279;SDS011;2663;53.588;10.010;2024-02-28T04:19:51;35.23;;;19.27;;
5279;SDS011;2663;53.588;10.010;2024-02-28T04:22:18;37.20;;;19.23;;
5279;SDS011;2663;53.588;10.010;2024-02-28T04:24:44;40.23;;;19.93;;
5279;SDS011;2663;53.588;10.010;2024-02-28T04:27:11;40.97;;;21.23;;
5279;SDS011;2663;53.588;10.010;2024-02-28T04:29:38;43.60;;;20.90;;
5279;SDS011;2663;53.588;10.010;2024-02-28T04:32:05;41.57;;;20.83;;
5279;SDS011;2663;53.588;10.010;2024-02-28T04:34:31;38.40;;;19.73;;
5279;SDS011;2663;53.588;10.010;2024-02-28T04:36:58;47.43;;;20.83;;
5279;SDS011;2663;53.588;10.010;2024-02-28T04:39:25;41.73;;;20.40;;
5279;SDS011;2663;53.588;10.010;2024-02-28T04:41:52;38.17;;;21.07;;
5279;SDS011;2663;53.588;10.010;2024-02-28T04:44:19;39.10;;;20.43;;
5279;SDS011;2663;53.588;10.010;2024-02-28T04:46:45;41.37;;;19.90;;
5279;SDS011;2663;53.588;10.010;2024-02-28T04:49:12;40.47;;;20.40;;
5279;SDS011;2663;53.588;10.010;2024-02-28T04:51:39;36.70;;;19.73;;
5279;SDS011;2663;53.588;10.010;2024-02-28T04:54:05;36.80;;;19.90;;
5279;SDS011;2663;53.588;10.010;2024-02-28T04:56:32;40.27;;;20.07;;
5279;SDS011;2663;53.588;10.010;2024-02-28T04:58:59;39.50;;;20.23;;
5279;SDS011;2663;53.588;10.010;2024-02-28T05:01:25;50.60;;;21.13;;
5279;SDS011;2663;53.588;10.010;2024-02-28T05:03:54;39.70;;;20.30;;
5279;SDS011;2663;53.588;10.010;2024-02-28T05:06:21;38.83;;;20.37;;
5279;SDS011;2663;53.588;10.010;2024-02-28T05:08:48;39.57;;;20.47;;
5279;SDS011;2663;53.588;10.010;2024-02-28T05:11:15;35.57;;;20.13;;
5279;SDS011;2663;53.588;10.010;2024-02-28T05:13:41;38.67;;;20.67;;
5279;SDS011;2663;53.588;10.010;2024-02-28T05:16:12;38.53;;;20.60;;
5279;SDS011;2663;53.588;10.010;2024-02-28T05:18:40;37.20;;;20.00;;
5279;SDS011;2663;53.588;10.010;2024-02-28T05:21:06;39.97;;;21.00;;
5279;SDS011;2663;53.588;10.010;2024-02-28T05:23:33;38.43;;;21.77;;
5279;SDS011;2663;53.588;10.010;2024-02-28T05:26:00;41.10;;;20.70;;
5279;SDS011;2663;53.588;10.010;2024-02-28T05:28:30;36.60;;;19.97;;
5279;SDS011;2663;53.588;10.010;2024-02-28T05:30:57;38.00;;;19.37;;
5279;SDS011;2663;53.588;10.010;2024-02-28T05:33:24;49.60;;;21.67;;
5279;SDS011;2663;53.588;10.010;2024-02-28T05:35:51;38.20;;;20.50;;
5279;SDS011;2663;53.588;10.010;2024-02-28T05:38:17;38.47;;;20.47;;
5279;SDS011;2663;53.588;10.010;2024-02-28T05:40:44;37.83;;;20.27;;
5279;SDS011;2663;53.588;10.010;2024-02-28T05:43:11;36.80;;;20.73;;
5279;SDS011;2663;53.588;10.010;2024-02-28T05:45:37;37.30;;;20.67;;
5279;SDS011;2663;53.588;10.010;2024-02-28T05:48:05;45.17;;;21.40;;
5279;SDS011;2663;53.588;10.010;2024-02-28T05:50:32;40.37;;;22.63;;
5279;SDS011;2663;53.588;10.010;2024-02-28T05:52:59;39.43;;;22.47;;
5279;SDS011;2663;53.588;10.010;2024-02-28T05:55:25;39.33;;;20.93;;
5279;SDS011;2663;53.588;10.010;2024-02-28T05:57:52;39.47;;;21.97;;
5279;SDS011;2663;53.588;10.010;2024-02-28T06:00:19;43.17;;;22.90;;
5279;SDS011;2663;53.588;10.010;2024-02-28T06:02:46;38.23;;;20.97;;
5279;SDS011;2663;53.588;10.010;2024-02-28T06:05:13;38.03;;;21.27;;
5279;SDS011;2663;53.588;10.010;2024-02-28T06:07:39;35.93;;;21.17;;
5279;SDS011;2663;53.588;10.010;2024-02-28T06:10:06;43.13;;;23.10;;
5279;SDS011;2663;53.588;10.010;2024-02-28T06:12:34;37.43;;;20.67;;
5279;SDS011;2663;53.588;10.010;2024-02-28T06:15:01;35.83;;;21.13;;
5279;SDS011;2663;53.588;10.010;2024-02-28T06:17:28;42.63;;;19.53;;
5279;SDS011;2663;53.588;10.010;2024-02-28T06:19:55;42.33;;;20.30;;
5279;SDS011;2663;53.588;10.010;2024-02-28T06:22:22;35.17;;;18.10;;
5279;SDS011;2663;53.588;10.010;2024-02-28T06:24:48;41.80;;;21.00;;
5279;SDS011;2663;53.588;10.010;2024-02-28T06:27:15;39.33;;;20.30;;
5279;SDS011;2663;53.588;10.010;2024-02-28T06:29:42;37.00;;;19.30;;
5279;SDS011;2663;53.588;10.010;2024-02-28T06:32:09;32.00;;;17.77;;
5279;SDS011;2663;53.588;10.010;2024-02-28T06:34:35;33.27;;;17.83;;
5279;SDS011;2663;53.588;10.010;2024-02-28T06:37:02;31.97;;;17.60;;
5279;SDS011;2663;53.588;10.010;2024-02-28T06:39:30;28.90;;;17.07;;
5279;SDS011;2663;53.588;10.010;2024-02-28T06:41:56;25.57;;;15.50;;
5279;SDS011;2663;53.588;10.010;2024-02-28T06:44:23;28.03;;;16.37;;
5279;SDS011;2663;53.588;10.010;2024-02-28T06:46:50;30.00;;;15.67;;
5279;SDS011;2663;53.588;10.010;2024-02-28T06:49:16;27.97;;;15.80;;
5279;SDS011;2663;53.588;10.010;2024-02-28T06:51:43;29.07;;;16.40;;
5279;SDS011;2663;53.588;10.010;2024-02-28T06:54:11;21.87;;;14.83;;
5279;SDS011;2663;53.588;10.010;2024-02-28T06:56:38;26.43;;;15.30;;
5279;SDS011;2663;53.588;10.010;2024-02-28T06:59:04;24.97;;;14.90;;
5279;SDS011;2663;53.588;10.010;2024-02-28T07:01:33;26.00;;;15.10;;
5279;SDS011;2663;53.588;10.010;2024-02-28T07:04:00;23.93;;;14.77;;
5279;SDS011;2663;53.588;10.010;2024-02-28T07:06:27;21.67;;;13.57;;
5279;SDS011;2663;53.588;10.010;2024-02-28T07:08:54;20.47;;;14.40;;
5279;SDS011;2663;53.588;10.010;2024-02-28T07:11:20;24.80;;;13.40;;
5279;SDS011;2663;53.588;10.010;2024-02-28T07:13:47;24.07;;;13.70;;
5279;SDS011;2663;53.588;10.010;2024-02-28T07:16:14;21.83;;;13.50;;
5279;SDS011;2663;53.588;10.010;2024-02-28T07:18:41;28.33;;;14.90;;
5279;SDS011;2663;53.588;10.010;2024-02-28T07:21:08;25.20;;;14.47;;
5279;SDS011;2663;53.588;10.010;2024-02-28T07:23:35;24.13;;;15.33;;
5279;SDS011;2663;53.588;10.010;2024-02-28T07:26:06;24.10;;;13.33;;
5279;SDS011;2663;53.588;10.010;2024-02-28T07:28:44;24.80;;;14.20;;
5279;SDS011;2663;53.588;10.010;2024-02-28T07:31:16;22.73;;;14.50;;
5279;SDS011;2663;53.588;10.010;2024-02-28T07:33:43;25.33;;;14.20;;
5279;SDS011;2663;53.588;10.010;2024-02-28T07:36:10;27.67;;;15.00;;
5279;SDS011;2663;53.588;10.010;2024-02-28T07:38:37;26.57;;;15.70;;
5279;SDS011;2663;53.588;10.010;2024-02-28T07:41:04;21.43;;;14.50;;
5279;SDS011;2663;53.588;10.010;2024-02-28T07:43:31;26.47;;;15.17;;
5279;SDS011;2663;53.588;10.010;2024-02-28T07:46:07;25.30;;;13.80;;
5279;SDS011;2663;53.588;10.010;2024-02-28T07:48:34;24.73;;;15.30;;
5279;SDS011;2663;53.588;10.010;2024-02-28T07:51:03;24.57;;;15.37;;
5279;SDS011;2663;53.588;10.010;2024-02-28T07:53:31;25.10;;;14.20;;
5279;SDS011;2663;53.588;10.010;2024-02-28T07:55:58;27.70;;;15.20;;
5279;SDS011;2663;53.588;10.010;2024-02-28T07:58:24;33.50;;;16.57;;
5279;SDS011;2663;53.588;10.010;2024-02-28T08:00:51;28.13;;;17.13;;
5279;SDS011;2663;53.588;10.010;2024-02-28T08:03:21;30.30;;;18.07;;
5279;SDS011;2663;53.588;10.010;2024-02-28T08:05:47;29.60;;;16.80;;
5279;SDS011;2663;53.588;10.010;2024-02-28T08:08:14;20.83;;;13.30;;
5279;SDS011;2663;53.588;10.010;2024-02-28T08:10:41;28.50;;;16.40;;
5279;SDS011;2663;53.588;10.010;2024-02-28T08:13:08;36.80;;;18.80;;
5279;SDS011;2663;53.588;10.010;2024-02-28T08:15:35;31.57;;;17.17;;
5279;SDS011;2663;53.588;10.010;2024-02-28T08:18:02;32.00;;;17.90;;
5279;SDS011;2663;53.588;10.010;2024-02-28T08:20:29;34.00;;;18.50;;
5279;SDS011;2663;53.588;10.010;2024-02-28T08:22:55;34.50;;;18.93;;
5279;SDS011;2663;53.588;10.010;2024-02-28T08:25:24;30.27;;;17.50;;
5279;SDS011;2663;53.588;10.010;2024-02-28T08:27:51;36.70;;;19.90;;
5279;SDS011;2663;53.588;10.010;2024-02-28T08:30:18;33.97;;;21.03;;
5279;SDS011;2663;53.588;10.010;2024-02-28T08:32:44;36.67;;;21.00;;
5279;SDS011;2663;53.588;10.010;2024-02-28T08:35:11;36.03;;;21.13;;
5279;SDS011;2663;53.588;10.010;2024-02-28T08:37:38;35.70;;;20.20;;
5279;SDS011;2663;53.588;10.010;2024-02-28T08:40:06;39.60;;;20.03;;
5279;SDS011;2663;53.588;10.010;2024-02-28T08:42:33;31.17;;;18.00;;
5279;SDS011;2663;53.588;10.010;2024-02-28T08:45:00;39.67;;;21.07;;
5279;SDS011;2663;53.588;10.010;2024-02-28T08:47:27;48.73;;;24.10;;
5279;SDS011;2663;53.588;10.010;2024-02-28T08:49:53;41.37;;;22.33;;
5279;SDS011;2663;53.588;10.010;2024-02-28T08:52:21;41.67;;;22.20;;
5279;SDS011;2663;53.588;10.010;2024-02-28T08:54:48;48.53;;;24.67;;
5279;SDS011;2663;53.588;10.010;2024-02-28T08:57:15;44.70;;;24.73;;
5279;SDS011;2663;53.588;10.010;2024-02-28T08:59:42;44.67;;;23.10;;
5279;SDS011;2663;53.588;10.010;2024-02-28T09:02:09;43.87;;;24.83;;
5279;SDS011;2663;53.588;10.010;2024-02-28T09:04:37;42.70;;;22.60;;
5279;SDS011;2663;53.588;10.010;2024-02-28T09:07:04;51.43;;;26.27;;
5279;SDS011;2663;53.588;10.010;2024-02-28T09:09:31;49.33;;;25.60;;
5279;SDS011;2663;53.588;10.010;2024-02-28T09:12:00;53.67;;;26.40;;
5279;SDS011;2663;53.588;10.010;2024-02-28T09:14:29;50.57;;;25.87;;
5279;SDS011;2663;53.588;10.010;2024-02-28T09:16:56;47.67;;;23.87;;
5279;SDS011;2663;53.588;10.010;2024-02-28T09:19:29;43.10;;;25.00;;
5279;SDS011;2663;53.588;10.010;2024-02-28T09:22:00;50.10;;;25.60;;
5279;SDS011;2663;53.588;10.010;2024-02-28T09:24:27;44.27;;;23.47;;
5279;SDS011;2663;53.588;10.010;2024-02-28T09:26:53;43.07;;;23.43;;
5279;SDS011;2663;53.588;10.010;2024-02-28T09:29:20;48.27;;;26.60;;
5279;SDS011;2663;53.588;10.010;2024-02-28T09:31:47;44.03;;;23.40;;
5279;SDS011;2663;53.588;10.010;2024-02-28T09:34:13;43.17;;;22.73;;
5279;SDS011;2663;53.588;10.010;2024-02-28T09:36:43;46.90;;;24.17;;
5279;SDS011;2663;53.588;10.010;2024-02-28T09:39:16;58.77;;;23.20;;
5279;SDS011;2663;53.588;10.010;2024-02-28T09:41:43;41.03;;;22.30;;
5279;SDS011;2663;53.588;10.010;2024-02-28T09:44:13;39.17;;;19.27;;
5279;SDS011;2663;53.588;10.010;2024-02-28T09:46:41;37.10;;;20.93;;
5279;SDS011;2663;53.588;10.010;2024-02-28T09:49:09;39.00;;;20.63;;
5279;SDS011;2663;53.588;10.010;2024-02-28T09:51:37;38.40;;;20.20;;
5279;SDS011;2663;53.588;10.010;2024-02-28T09:54:04;33.70;;;18.87;;
5279;SDS011;2663;53.588;10.010;2024-02-28T09:56:31;36.13;;;20.43;;
5279;SDS011;2663;53.588;10.010;2024-02-28T09:58:59;36.37;;;18.67;;
5279;SDS011;2663;53.588;10.010;2024-02-28T10:01:29;30.37;;;14.50;;
5279;SDS011;2663;53.588;10.010;2024-02-28T10:03:57;36.80;;;18.70;;
5279;SDS011;2663;53.588;10.010;2024-02-28T10:06:27;40.00;;;23.80;;
5279;SDS011;2663;53.588;10.010;2024-02-28T10:08:54;36.40;;;19.97;;
5279;SDS011;2663;53.588;10.010;2024-02-28T10:11:21;26.47;;;15.13;;
5279;SDS011;2663;53.588;10.010;2024-02-28T10:13:48;32.97;;;19.40;;
5279;SDS011;2663;53.588;10.010;2024-02-28T10:16:16;35.50;;;17.07;;
5279;SDS011;2663;53.588;10.010;2024-02-28T10:18:43;36.47;;;19.53;;
5279;SDS011;2663;53.588;10.010;2024-02-28T10:21:10;33.93;;;19.00;;
5279;SDS011;2663;53.588;10.010;2024-02-28T10:23:41;37.53;;;19.33;;
5279;SDS011;2663;53.588;10.010;2024-02-28T10:26:11;34.43;;;18.73;;
5279;SDS011;2663;53.588;10.010;2024-02-28T10:28:39;35.40;;;19.27;;
5279;SDS011;2663;53.588;10.010;2024-02-28T10:31:06;33.90;;;17.50;;
5279;SDS011;2663;53.588;10.010;2024-02-28T10:33:34;35.23;;;17.57;;
5279;SDS011;2663;53.588;10.010;2024-02-28T10:36:03;31.77;;;17.23;;
5279;SDS011;2663;53.588;10.010;2024-02-28T10:38:31;29.20;;;15.40;;
5279;SDS011;2663;53.588;10.010;2024-02-28T10:41:05;31.27;;;17.07;;
5279;SDS011;2663;53.588;10.010;2024-02-28T10:43:36;39.30;;;19.50;;
5279;SDS011;2663;53.588;10.010;2024-02-28T10:46:06;31.43;;;18.77;;
5279;SDS011;2663;53.588;10.010;2024-02-28T10:48:55;31.43;;;18.70;;
5279;SDS011;2663;53.588;10.010;2024-02-28T10:51:23;37.10;;;18.37;;
5279;SDS011;2663;53.588;10.010;2024-02-28T10:56:41;31.70;;;17.10;;
5279;SDS011;2663;53.588;10.010;2024-02-28T10:59:10;32.30;;;18.20;;
5279;SDS011;2663;53.588;10.010;2024-02-28T11:01:39;31.50;;;15.73;;
5279;SDS011;2663;53.588;10.010;2024-02-28T11:04:12;39.30;;;17.33;;
5279;SDS011;2663;53.588;10.010;2024-02-28T11:06:49;31.67;;;16.67;;
5279;SDS011;2663;53.588;10.010;2024-02-28T11:09:19;33.87;;;17.13;;
5279;SDS011;2663;53.588;10.010;2024-02-28T11:11:50;31.50;;;16.67;;
5279;SDS011;2663;53.588;10.010;2024-02-28T11:14:17;34.50;;;19.10;;
5279;SDS011;2663;53.588;10.010;2024-02-28T11:16:48;32.63;;;18.63;;
5279;SDS011;2663;53.588;10.010;2024-02-28T11:19:32;28.23;;;16.47;;
5279;SDS011;2663;53.588;10.010;2024-02-28T11:22:01;36.00;;;18.97;;
5279;SDS011;2663;53.588;10.010;2024-02-28T11:24:31;32.40;;;16.50;;
5279;SDS011;2663;53.588;10.010;2024-02-28T11:26:59;27.70;;;16.90;;
5279;SDS011;2663;53.588;10.010;2024-02-28T11:29:26;31.33;;;16.30;;
5279;SDS011;2663;53.588;10.010;2024-02-28T11:31:55;27.73;;;14.63;;
5279;SDS011;2663;53.588;10.010;2024-02-28T11:34:21;30.87;;;16.97;;
5279;SDS011;2663;53.588;10.010;2024-02-28T11:36:48;30.90;;;17.70;;
5279;SDS011;2663;53.588;10.010;2024-02-28T11:39:16;28.60;;;15.87;;
5279;SDS011;2663;53.588;10.010;2024-02-28T11:41:43;29.00;;;16.80;;
5279;SDS011;2663;53.588;10.010;2024-02-28T11:44:14;31.20;;;17.77;;
5279;SDS011;2663;53.588;10.010;2024-02-28T11:46:43;37.33;;;19.77;;
5279;SDS011;2663;53.588;10.010;2024-02-28T11:49:11;38.40;;;18.60;;
5279;SDS011;2663;53.588;10.010;2024-02-28T11:51:44;35.07;;;19.53;;
5279;SDS011;2663;53.588;10.010;2024-02-28T11:54:12;31.57;;;18.50;;
5279;SDS011;2663;53.588;10.010;2024-02-28T11:56:39;40.93;;;18.67;;
5279;SDS011;2663;53.588;10.010;2024-02-28T11:59:06;37.60;;;18.80;;
5279;SDS011;2663;53.588;10.010;2024-02-28T12:01:35;34.00;;;18.63;;
5279;SDS011;2663;53.588;10.010;2024-02-28T12:04:03;38.00;;;17.10;;
5279;SDS011;2663;53.588;10.010;2024-02-28T12:06:34;32.53;;;17.87;;
5279;SDS011;2663;53.588;10.010;2024-02-28T12:09:08;30.93;;;16.37;;
5279;SDS011;2663;53.588;10.010;2024-02-28T12:11:43;37.97;;;16.77;;
5279;SDS011;2663;53.588;10.010;2024-02-28T12:14:10;29.87;;;17.20;;
5279;SDS011;2663;53.588;10.010;2024-02-28T12:16:39;33.70;;;17.87;;
5279;SDS011;2663;53.588;10.010;2024-02-28T12:19:09;28.73;;;15.47;;
5279;SDS011;2663;53.588;10.010;2024-02-28T12:21:37;36.00;;;17.90;;
5279;SDS011;2663;53.588;10.010;2024-02-28T12:24:08;34.50;;;17.03;;
5279;SDS011;2663;53.588;10.010;2024-02-28T12:26:37;30.30;;;17.60;;
5279;SDS011;2663;53.588;10.010;2024-02-28T12:29:04;33.90;;;19.20;;
5279;SDS011;2663;53.588;10.010;2024-02-28T12:31:31;31.67;;;16.40;;
5279;SDS011;2663;53.588;10.010;2024-02-28T12:33:58;29.33;;;17.50;;
5279;SDS011;2663;53.588;10.010;2024-02-28T12:36:25;30.50;;;16.37;;
5279;SDS011;2663;53.588;10.010;2024-02-28T12:38:53;27.33;;;13.80;;
5279;SDS011;2663;53.588;10.010;2024-02-28T12:41:20;30.20;;;15.00;;
5279;SDS011;2663;53.588;10.010;2024-02-28T12:43:47;29.73;;;16.77;;
5279;SDS011;2663;53.588;10.010;2024-02-28T12:46:14;31.37;;;15.80;;
5279;SDS011;2663;53.588;10.010;2024-02-28T12:48:40;33.77;;;17.37;;
5279;SDS011;2663;53.588;10.010;2024-02-28T12:51:11;31.73;;;17.93;;
5279;SDS011;2663;53.588;10.010;2024-02-28T12:53:46;31.00;;;16.00;;
5279;SDS011;2663;53.588;10.010;2024-02-28T12:56:17;29.20;;;15.57;;
5279;SDS011;2663;53.588;10.010;2024-02-28T12:58:44;24.07;;;12.77;;
5279;SDS011;2663;53.588;10.010;2024-02-28T13:01:11;24.50;;;14.57;;
5279;SDS011;2663;53.588;10.010;2024-02-28T13:03:38;31.80;;;14.90;;
5279;SDS011;2663;53.588;10.010;2024-02-28T13:06:04;29.27;;;16.17;;
5279;SDS011;2663;53.588;10.010;2024-02-28T13:08:31;31.23;;;14.57;;
5279;SDS011;2663;53.588;10.010;2024-02-28T13:10:58;27.20;;;15.73;;
5279;SDS011;2663;53.588;10.010;2024-02-28T13:13:25;27.03;;;13.63;;
5279;SDS011;2663;53.588;10.010;2024-02-28T13:15:51;32.57;;;15.00;;
5279;SDS011;2663;53.588;10.010;2024-02-28T13:18:18;22.90;;;12.93;;
5279;SDS011;2663;53.588;10.010;2024-02-28T13:20:45;25.20;;;15.00;;
5279;SDS011;2663;53.588;10.010;2024-02-28T13:23:12;29.43;;;14.70;;
5279;SDS011;2663;53.588;10.010;2024-02-28T13:25:38;28.03;;;15.10;;
5279;SDS011;2663;53.588;10.010;2024-02-28T13:28:05;28.97;;;16.43;;
5279;SDS011;2663;53.588;10.010;2024-02-28T13:30:32;32.17;;;17.47;;
5279;SDS011;2663;53.588;10.010;2024-02-28T13:33:03;28.97;;;16.07;;
5279;SDS011;2663;53.588;10.010;2024-02-28T13:35:30;25.70;;;14.60;;
5279;SDS011;2663;53.588;10.010;2024-02-28T13:37:57;26.27;;;15.03;;
5279;SDS011;2663;53.588;10.010;2024-02-28T13:40:26;32.23;;;14.80;;
5279;SDS011;2663;53.588;10.010;2024-02-28T13:42:53;23.40;;;13.07;;
5279;SDS011;2663;53.588;10.010;2024-02-28T13:45:20;25.63;;;15.27;;
5279;SDS011;2663;53.588;10.010;2024-02-28T13:47:47;32.73;;;14.30;;
5279;SDS011;2663;53.588;10.010;2024-02-28T13:50:13;28.93;;;14.33;;
5279;SDS011;2663;53.588;10.010;2024-02-28T13:52:40;28.90;;;14.60;;
5279;SDS011;2663;53.588;10.010;2024-02-28T13:55:07;25.87;;;13.83;;
5279;SDS011;2663;53.588;10.010;2024-02-28T13:57:35;29.03;;;14.87;;
5279;SDS011;2663;53.588;10.010;2024-02-28T14:00:02;17.07;;;10.47;;
5279;SDS011;2663;53.588;10.010;2024-02-28T14:02:32;34.30;;;14.80;;
5279;SDS011;2663;53.588;10.010;2024-02-28T14:04:59;27.70;;;13.90;;
5279;SDS011;2663;53.588;10.010;2024-02-28T14:07:26;26.47;;;13.83;;
5279;SDS011;2663;53.588;10.010;2024-02-28T14:09:53;23.93;;;13.50;;
5279;SDS011;2663;53.588;10.010;2024-02-28T14:12:20;31.60;;;15.80;;
5279;SDS011;2663;53.588;10.010;2024-02-28T14:14:47;30.63;;;14.93;;
5279;SDS011;2663;53.588;10.010;2024-02-28T14:17:14;24.20;;;13.17;;
5279;SDS011;2663;53.588;10.010;2024-02-28T14:19:40;24.00;;;14.00;;
5279;SDS011;2663;53.588;10.010;2024-02-28T14:22:07;28.63;;;15.20;;
5279;SDS011;2663;53.588;10.010;2024-02-28T14:24:36;28.53;;;14.20;;
5279;SDS011;2663;53.588;10.010;2024-02-28T14:27:05;30.23;;;15.23;;
5279;SDS011;2663;53.588;10.010;2024-02-28T14:29:32;31.50;;;15.37;;
5279;SDS011;2663;53.588;10.010;2024-02-28T14:31:59;29.77;;;13.63;;
5279;SDS011;2663;53.588;10.010;2024-02-28T14:34:26;40.47;;;19.20;;
5279;SDS011;2663;53.588;10.010;2024-02-28T14:36:57;24.80;;;14.07;;
5279;SDS011;2663;53.588;10.010;2024-02-28T14:39:24;25.37;;;11.93;;